Time;durP1;ratioP1;P1;durP2;ratioP2;P2;SDS_P1;SDS_P2;PMS_P1;PMS_P2;Temp;Humidity;BMP_temperature;BMP_pressure;BME280_temperature;BME280_humidity;BME280_pressure;Samples;Min_cycle;Max_cycle;Signal;HPM_P1;HPM_P2
2020/12/07 00:02:10;;;;;;;67.03;34.20;;;5.40;99.90;;;3.23;100.00;99642.91;5006865;28;20239;-80
2020/12/07 00:04:55;;;;;;;56.87;31.83;;;5.40;99.90;;;3.26;100.00;99642.03;5020267;28;20314;-78
2020/12/07 00:07:41;;;;;;;65.17;32.83;;;5.40;99.90;;;3.31;100.00;99645.38;5015902;28;20211;-81
2020/12/07 00:10:26;;;;;;;59.23;33.10;;;5.40;99.90;;;3.34;100.00;99635.09;5018112;28;20262;-79
2020/12/07 00:13:11;;;;;;;54.10;32.03;;;5.40;99.90;;;3.31;100.00;99632.59;5022628;28;20207;-78
2020/12/07 00:15:57;;;;;;;62.97;33.23;;;5.50;99.90;;;3.29;100.00;99621.53;5008117;28;20209;-78
2020/12/07 00:18:43;;;;;;;57.40;32.30;;;5.40;99.90;;;3.28;100.00;99617.31;5014964;28;20203;-79
2020/12/07 00:21:29;;;;;;;58.03;33.70;;;5.50;99.90;;;3.25;100.00;99619.88;5024472;28;20207;-80
2020/12/07 00:24:15;;;;;;;55.90;31.87;;;5.50;99.90;;;3.24;100.00;99608.81;5025678;28;20228;-81
2020/12/07 00:27:00;;;;;;;56.20;32.33;;;5.70;99.90;;;3.24;100.00;99616.50;5024983;28;20207;-79
2020/12/07 00:29:45;;;;;;;57.10;32.47;;;5.50;99.90;;;3.26;100.00;99617.34;5027386;28;20240;-79
2020/12/07 00:32:34;;;;;;;56.50;33.10;;;5.50;99.90;;;3.26;100.00;99619.03;5011200;28;20280;-79
2020/12/07 00:35:19;;;;;;;53.03;29.87;;;5.50;99.90;;;3.27;100.00;99610.50;5022419;28;20296;-77
2020/12/07 00:38:04;;;;;;;58.03;32.27;;;5.50;99.90;;;3.28;100.00;99610.47;5010714;28;20232;-79
2020/12/07 00:40:51;;;;;;;61.47;32.83;;;5.50;99.90;;;3.27;100.00;99620.72;5017071;28;20247;-80
2020/12/07 00:43:36;;;;;;;53.27;31.93;;;5.50;99.90;;;3.25;100.00;99599.44;5015045;28;20276;-78
2020/12/07 00:46:21;;;;;;;52.73;30.90;;;5.50;99.90;;;3.24;100.00;99597.78;5014756;28;20669;-81
2020/12/07 00:49:06;;;;;;;57.07;31.70;;;5.50;99.90;;;3.23;100.00;99606.28;5026496;28;20220;-77
2020/12/07 00:51:52;;;;;;;54.53;31.10;;;5.50;99.90;;;3.23;100.00;99611.41;5019184;28;20553;-81
2020/12/07 00:54:39;;;;;;;59.00;32.33;;;5.50;99.90;;;3.23;100.00;99616.50;5009436;28;20232;-81
2020/12/07 00:57:25;;;;;;;51.80;30.13;;;5.50;99.90;;;3.23;100.00;99619.06;5020862;28;20219;-80
2020/12/07 01:00:11;;;;;;;52.97;31.73;;;5.50;99.90;;;3.20;100.00;99616.56;5010497;28;20224;-79
2020/12/07 01:02:56;;;;;;;51.77;31.63;;;5.50;99.90;;;3.16;100.00;99629.38;5025112;28;20285;-80
2020/12/07 01:05:41;;;;;;;55.27;30.47;;;5.60;99.90;;;3.17;100.00;99637.88;5012846;28;20223;-79
2020/12/07 01:08:26;;;;;;;54.77;30.97;;;5.50;99.90;;;3.19;100.00;99648.09;5023747;28;20232;-78
2020/12/07 01:11:11;;;;;;;45.30;25.40;;;5.50;99.90;;;3.17;100.00;99643.00;5026601;28;20577;-81
2020/12/07 01:13:58;;;;;;;56.53;32.63;;;5.60;99.90;;;3.16;100.00;99646.44;5030467;28;20251;-78
2020/12/07 01:16:43;;;;;;;51.03;29.50;;;5.50;99.90;;;3.17;100.00;99637.88;5017800;28;20220;-80
2020/12/07 01:19:28;;;;;;;51.97;30.50;;;5.50;99.90;;;3.15;100.00;99630.25;5009896;28;20196;-79
2020/12/07 01:22:13;;;;;;;50.90;29.03;;;5.50;99.90;;;3.14;100.00;99631.13;5013643;28;20296;-79
2020/12/07 01:24:59;;;;;;;53.93;30.60;;;5.50;99.90;;;3.16;100.00;99621.72;5023715;28;20232;-80
2020/12/07 01:27:45;;;;;;;51.80;30.80;;;5.50;99.90;;;3.11;100.00;99613.25;5015754;28;20200;-80
2020/12/07 01:30:31;;;;;;;51.50;31.27;;;5.50;99.90;;;3.10;100.00;99601.38;5024717;28;20200;-79
2020/12/07 01:33:16;;;;;;;51.93;30.40;;;5.50;99.90;;;3.10;100.00;99609.03;5019664;28;20212;-80
2020/12/07 01:36:01;;;;;;;47.73;29.30;;;5.50;99.90;;;3.11;100.00;99609.88;5023023;28;20252;-79
2020/12/07 01:38:47;;;;;;;52.83;31.23;;;5.50;99.90;;;3.11;100.00;99604.75;5025176;28;20212;-80
2020/12/07 01:41:32;;;;;;;48.67;29.33;;;5.50;99.90;;;3.09;100.00;99599.69;5015238;28;20224;-81
2020/12/07 01:44:17;;;;;;;51.43;30.80;;;5.50;99.90;;;3.07;100.00;99606.53;5008394;28;20220;-78
2020/12/07 01:47:21;;;;;;;49.60;30.43;;;5.50;99.90;;;3.07;100.00;99592.91;5007258;28;20261;-80
2020/12/07 01:50:07;;;;;;;52.20;29.37;;;5.50;99.90;;;3.07;100.00;99593.75;5014840;28;20247;-80
2020/12/07 01:52:52;;;;;;;51.63;29.17;;;5.50;99.90;;;3.06;100.00;99594.63;5023523;28;20279;-78
2020/12/07 01:55:44;;;;;;;53.37;29.40;;;5.50;99.90;;;3.07;100.00;99598.00;5025083;28;20270;-77
2020/12/07 01:58:29;;;;;;;52.23;28.30;;;5.50;99.90;;;3.08;100.00;99605.66;5012854;28;20208;-78
2020/12/07 02:01:14;;;;;;;53.43;31.77;;;5.50;99.90;;;3.09;100.00;99603.97;5017472;28;20231;-79
2020/12/07 02:04:00;;;;;;;53.43;30.17;;;5.50;99.90;;;3.12;100.00;99598.81;5025338;28;20244;-77
2020/12/07 02:06:45;;;;;;;55.33;30.63;;;5.50;99.90;;;3.11;100.00;99600.50;5024205;28;20318;-80
2020/12/07 02:09:31;;;;;;;56.67;31.67;;;5.50;99.90;;;3.11;100.00;99590.28;5026225;28;20208;-77
2020/12/07 02:12:16;;;;;;;52.30;30.57;;;5.50;99.90;;;3.15;100.00;99588.53;5022600;28;20208;-80
2020/12/07 02:15:02;;;;;;;53.70;29.53;;;5.50;99.90;;;3.13;100.00;99569.81;5025484;28;20224;-76
2020/12/07 02:17:47;;;;;;;55.20;31.27;;;5.40;99.90;;;3.15;100.00;99561.25;5031546;28;20335;-76
2020/12/07 02:20:34;;;;;;;54.37;31.73;;;5.50;99.90;;;3.15;100.00;99553.59;5039685;28;20472;-78
2020/12/07 02:23:19;;;;;;;62.73;32.07;;;5.50;99.90;;;3.15;100.00;99550.19;5029479;28;20227;-78
2020/12/07 02:26:04;;;;;;;57.00;31.83;;;5.50;99.90;;;3.18;100.00;99544.22;5032724;28;20220;-78
2020/12/07 02:28:50;;;;;;;50.20;30.53;;;5.40;99.90;;;3.18;100.00;99547.59;5026998;28;20203;-80
2020/12/07 02:31:37;;;;;;;60.63;30.93;;;5.40;99.90;;;3.19;100.00;99539.06;5022444;28;20243;-80
2020/12/07 02:34:23;;;;;;;57.07;29.83;;;5.40;99.90;;;3.19;100.00;99540.75;5022302;28;20248;-77
2020/12/07 02:37:10;;;;;;;56.67;30.17;;;5.50;99.90;;;3.21;100.00;99536.50;5012346;28;20228;-80
2020/12/07 02:39:55;;;;;;;55.77;31.80;;;5.40;99.90;;;3.23;100.00;99529.63;5022683;28;20207;-80
2020/12/07 02:42:42;;;;;;;50.47;30.63;;;5.50;99.90;;;3.21;100.00;99532.22;5018545;28;20575;-79
2020/12/07 02:45:27;;;;;;;56.47;31.07;;;5.50;99.90;;;3.23;100.00;99524.53;5023904;28;20261;-79
2020/12/07 02:48:12;;;;;;;41.67;23.30;;;5.50;99.90;;;3.24;100.00;99516.81;5022938;28;20212;-80
2020/12/07 02:50:58;;;;;;;54.93;31.07;;;5.50;99.90;;;3.26;100.00;99517.66;5012493;28;20216;-81
2020/12/07 02:53:44;;;;;;;51.73;30.67;;;5.40;99.90;;;3.27;100.00;99515.94;5022445;28;20295;-78
2020/12/07 02:56:29;;;;;;;55.37;29.87;;;5.40;99.90;;;3.27;100.00;99510.81;5022564;28;20216;-80
2020/12/07 02:59:14;;;;;;;54.37;29.37;;;5.40;99.90;;;3.30;100.00;99508.22;5012452;28;20731;-79
2020/12/07 03:02:00;;;;;;;33.87;19.07;;;5.50;99.90;;;3.29;100.00;99498.84;5023202;28;20568;-79
2020/12/07 03:04:46;;;;;;;53.00;30.33;;;5.50;99.90;;;3.28;100.00;99487.81;5022929;28;20321;-80
2020/12/07 03:07:31;;;;;;;40.33;22.77;;;5.60;99.90;;;3.30;100.00;99480.09;5022890;28;20204;-81
2020/12/07 03:10:17;;;;;;;53.67;30.77;;;5.50;99.90;;;3.31;100.00;99477.53;5020708;28;20215;-79
2020/12/07 03:13:02;;;;;;;54.67;29.97;;;5.50;99.90;;;3.32;100.00;99479.22;5023870;28;20215;-79
2020/12/07 03:15:47;;;;;;;50.70;29.73;;;5.50;99.90;;;3.32;100.00;99476.66;5020050;28;20199;-78
2020/12/07 03:18:32;;;;;;;50.63;29.23;;;5.50;99.90;;;3.34;100.00;99471.53;5019284;28;20207;-79
2020/12/07 03:21:18;;;;;;;45.20;26.17;;;5.50;99.90;;;3.35;100.00;99478.28;5023593;28;20207;-80
2020/12/07 03:24:05;;;;;;;54.83;29.90;;;5.50;99.90;;;3.37;100.00;99479.13;5004152;28;20279;-81
2020/12/07 03:26:51;;;;;;;51.40;29.63;;;5.50;99.90;;;3.38;100.00;99472.28;5015777;28;20201;-78
2020/12/07 03:29:37;;;;;;;52.87;31.07;;;5.50;99.90;;;3.41;100.00;99485.00;5023044;28;20207;-78
2020/12/07 03:32:22;;;;;;;48.20;28.77;;;5.50;99.90;;;3.41;100.00;99477.34;5015637;28;20234;-77
2020/12/07 03:35:07;;;;;;;49.53;29.37;;;5.60;99.90;;;3.42;100.00;99479.03;5012076;28;20232;-80
2020/12/07 03:37:53;;;;;;;49.40;29.00;;;5.50;99.90;;;3.43;100.00;99473.91;5023110;28;20230;-79
2020/12/07 03:40:38;;;;;;;50.10;29.77;;;5.60;99.90;;;3.43;100.00;99471.34;5017378;28;20204;-77
2020/12/07 03:43:24;;;;;;;47.30;28.93;;;5.60;99.90;;;3.42;100.00;99474.75;5009603;28;20243;-80
2020/12/07 03:46:11;;;;;;;43.17;28.33;;;5.60;99.90;;;3.42;100.00;99479.03;5022162;28;20211;-81
2020/12/07 03:48:56;;;;;;;44.57;27.20;;;5.60;99.90;;;3.43;100.00;99465.41;5025557;28;20215;-80
2020/12/07 03:51:41;;;;;;;43.20;26.87;;;5.60;99.90;;;3.41;100.00;99465.44;5031454;28;20251;-78
2020/12/07 03:54:27;;;;;;;46.20;29.93;;;5.60;99.90;;;3.45;100.00;99463.66;5027127;28;20306;-79
2020/12/07 03:57:12;;;;;;;44.87;27.03;;;5.60;99.90;;;3.45;100.00;99472.16;5024081;28;20267;-80
2020/12/07 03:59:58;;;;;;;45.07;26.47;;;5.60;99.90;;;3.47;100.00;99475.53;5020132;28;20260;-79
2020/12/07 04:02:44;;;;;;;42.20;25.83;;;5.60;99.90;;;3.48;100.00;99478.94;5029972;28;20204;-80
2020/12/07 04:05:32;;;;;;;44.67;26.90;;;5.70;99.90;;;3.50;100.00;99490.00;5031257;28;20226;-79
2020/12/07 04:08:17;;;;;;;44.87;27.60;;;5.60;99.90;;;3.49;100.00;99491.69;5037850;28;20208;-77
2020/12/07 04:11:02;;;;;;;46.53;27.93;;;5.60;99.90;;;3.51;100.00;99495.06;5030166;28;20215;-79
2020/12/07 04:13:47;;;;;;;48.97;28.17;;;5.70;99.90;;;3.52;100.00;99511.25;5016225;28;20232;-79
2020/12/07 04:16:34;;;;;;;42.00;26.07;;;5.70;99.90;;;3.53;100.00;99507.81;5021292;28;20220;-79
2020/12/07 04:19:19;;;;;;;45.00;26.90;;;5.70;99.90;;;3.51;100.00;99501.88;5025261;28;20207;-78
2020/12/07 04:22:04;;;;;;;42.87;26.30;;;5.70;99.90;;;3.49;100.00;99496.78;5029156;28;20207;-80
2020/12/07 04:24:50;;;;;;;40.13;26.00;;;5.70;99.90;;;3.48;100.00;99496.81;5011443;28;20242;-79
2020/12/07 04:27:35;;;;;;;42.33;26.20;;;5.70;99.90;;;3.46;100.00;99484.06;5013724;28;20629;-77
2020/12/07 04:30:20;;;;;;;47.73;27.97;;;5.70;99.90;;;3.45;100.00;99490.03;5016905;28;20260;-80
2020/12/07 04:33:06;;;;;;;49.40;28.80;;;5.70;99.90;;;3.44;100.00;99478.16;5014940;28;20224;-76
2020/12/07 04:35:52;;;;;;;43.57;26.53;;;5.70;99.90;;;3.42;100.00;99479.88;5020058;28;20211;-80
2020/12/07 04:38:37;;;;;;;52.27;30.27;;;5.70;99.90;;;3.42;100.00;99476.50;5030498;28;20226;-80
2020/12/07 04:41:22;;;;;;;52.60;29.30;;;5.70;99.90;;;3.40;100.00;99466.28;5024765;28;20200;-80
2020/12/07 04:44:09;;;;;;;44.83;26.40;;;5.70;99.90;;;3.39;100.00;99461.22;5030625;28;20231;-77
2020/12/07 04:46:54;;;;;;;44.60;26.47;;;5.70;99.90;;;3.37;100.00;99466.34;5022351;28;20200;-79
2020/12/07 04:49:42;;;;;;;40.93;24.47;;;5.70;99.90;;;3.36;100.00;99459.53;5016819;28;20215;-79
2020/12/07 04:52:28;;;;;;;49.57;28.27;;;5.70;99.90;;;3.36;100.00;99457.00;5027036;28;20240;-77
2020/12/07 04:55:13;;;;;;;46.13;30.13;;;5.70;99.90;;;3.40;100.00;99450.13;5016571;28;20232;-80
2020/12/07 04:58:00;;;;;;;46.73;28.57;;;5.60;99.90;;;3.40;100.00;99450.13;5026168;28;20291;-77
2020/12/07 05:00:45;;;;;;;52.63;32.40;;;5.70;99.90;;;3.40;100.00;99438.19;5022304;28;20243;-78
2020/12/07 05:03:32;;;;;;;50.97;31.57;;;5.70;99.90;;;3.41;100.00;99432.19;5027396;28;20607;-81
2020/12/07 05:06:20;;;;;;;56.00;33.50;;;5.70;99.90;;;3.43;100.00;99445.78;5023198;28;20275;-79
2020/12/07 05:09:04;;;;;;;44.97;27.27;;;5.70;99.90;;;3.45;100.00;99443.19;5016871;28;20208;-79
2020/12/07 05:11:50;;;;;;;54.43;32.47;;;5.70;99.90;;;3.46;100.00;99444.91;5017754;28;20305;-78
2020/12/07 05:14:36;;;;;;;49.77;30.77;;;5.70;99.90;;;3.46;100.00;99452.56;5022876;28;20275;-78
2020/12/07 05:17:23;;;;;;;53.13;32.47;;;5.70;99.90;;;3.48;100.00;99455.91;5016017;28;20216;-80
2020/12/07 05:20:08;;;;;;;57.87;33.90;;;5.70;99.90;;;3.47;100.00;99449.97;5022759;28;20212;-79
2020/12/07 05:22:54;;;;;;;56.33;33.60;;;5.70;99.90;;;3.48;100.00;99449.13;5018315;28;20228;-79
2020/12/07 05:25:39;;;;;;;47.50;29.80;;;5.70;99.90;;;3.46;100.00;99445.72;5017801;28;20228;-79
2020/12/07 05:28:38;;;;;;;50.83;31.87;;;5.70;99.90;;;3.48;100.00;99443.13;5020038;28;20598;-78
2020/12/07 05:31:23;;;;;;;50.50;32.13;;;5.70;99.90;;;3.46;100.00;99414.22;5017042;28;20304;-80
2020/12/07 05:34:08;;;;;;;60.97;34.93;;;5.70;99.90;;;3.45;100.00;99415.91;5015396;28;20779;-78
2020/12/07 05:36:55;;;;;;;57.13;32.77;;;5.70;99.90;;;3.43;100.00;99420.22;5018423;28;20231;-78
2020/12/07 05:39:42;;;;;;;52.50;32.57;;;5.70;99.90;;;3.45;100.00;99433.81;5015425;28;20204;-78
2020/12/07 05:42:29;;;;;;;46.77;27.67;;;5.70;99.90;;;3.44;100.00;99442.38;5018613;28;20201;-78
2020/12/07 05:45:14;;;;;;;53.60;34.40;;;5.70;99.90;;;3.45;100.00;99438.91;5017630;28;20282;-77
2020/12/07 05:48:02;;;;;;;56.03;33.83;;;5.70;99.90;;;3.46;100.00;99443.16;4997308;28;20209;-79
2020/12/07 05:50:51;;;;;;;60.23;35.63;;;5.70;99.90;;;3.46;100.00;99450.84;5007307;28;20204;-79
2020/12/07 05:53:41;;;;;;;54.60;32.03;;;5.70;99.90;;;3.46;100.00;99445.72;5015962;28;20332;-78
2020/12/07 05:56:31;;;;;;;42.17;25.57;;;5.70;99.90;;;3.48;100.00;99456.78;5011253;28;20282;-79
2020/12/07 05:59:23;;;;;;;62.13;38.40;;;5.70;99.90;;;3.48;100.00;99456.78;5004310;28;20216;-77
2020/12/07 06:02:11;;;;;;;58.63;34.13;;;5.70;99.90;;;3.49;100.00;99461.00;5014973;28;20216;-77
2020/12/07 06:04:58;;;;;;;54.67;33.80;;;5.70;99.90;;;3.49;100.00;99449.94;5010153;28;20612;-78
2020/12/07 06:07:51;;;;;;;45.83;27.70;;;5.70;99.90;;;3.48;100.00;99456.78;5003488;28;20280;-77
2020/12/07 06:10:42;;;;;;;56.23;33.73;;;5.70;99.90;;;3.48;100.00;99469.56;5009657;28;20263;-79
2020/12/07 06:13:30;;;;;;;36.67;23.03;;;5.70;99.90;;;3.49;100.00;99471.22;5012088;28;20219;-79
2020/12/07 06:16:16;;;;;;;49.67;30.50;;;5.70;99.90;;;3.50;100.00;99478.03;5002283;28;20216;-77
2020/12/07 06:19:01;;;;;;;46.60;27.67;;;5.70;99.90;;;3.50;100.00;99483.16;5002909;28;20205;-77
2020/12/07 06:21:53;;;;;;;48.73;30.53;;;5.70;99.90;;;3.51;100.00;99486.53;5002018;28;20704;-79
2020/12/07 06:24:41;;;;;;;53.47;31.90;;;5.70;99.90;;;3.53;100.00;99486.50;5007103;28;20685;-81
2020/12/07 06:27:26;;;;;;;40.90;25.00;;;5.70;99.90;;;3.51;100.00;99479.72;5007363;28;20490;-80
2020/12/07 06:30:13;;;;;;;55.07;32.13;;;5.70;99.90;;;3.54;100.00;99483.09;5006950;28;20215;-76
2020/12/07 06:33:04;;;;;;;44.87;29.07;;;5.90;99.90;;;3.54;100.00;99478.81;4996256;28;20724;-76
2020/12/07 06:35:55;;;;;;;49.10;30.90;;;5.70;99.90;;;3.55;100.00;99477.13;4997917;28;20263;-77
2020/12/07 06:38:42;;;;;;;47.93;30.63;;;5.70;99.90;;;3.56;100.00;99473.66;4998604;28;20232;-78
2020/12/07 06:41:36;;;;;;;51.33;29.50;;;5.70;99.90;;;3.55;100.00;99464.34;5000508;28;20225;-75
2020/12/07 06:44:25;;;;;;;51.20;31.87;;;5.70;99.90;;;3.58;100.00;99451.47;4997905;28;20223;-76
2020/12/07 06:47:19;;;;;;;50.70;30.53;;;5.70;99.90;;;3.57;100.00;99448.06;4994248;28;20614;-76
2020/12/07 06:50:13;;;;;;;53.83;30.70;;;5.70;99.90;;;3.58;100.00;99443.81;4999879;28;20231;-77
2020/12/07 07:09:56;;;;;;;39.47;26.67;;;5.70;99.90;;;3.63;100.00;99462.47;4958968;28;20250;-78
2020/12/07 07:12:45;;;;;;;52.43;29.73;;;5.70;99.90;;;3.62;100.00;99458.22;4962426;28;20214;-76
2020/12/07 07:15:30;;;;;;;38.97;26.17;;;5.70;99.90;;;3.62;100.00;99464.19;4966472;28;20295;-75
2020/12/07 07:18:14;;;;;;;41.60;25.77;;;5.70;99.90;;;3.62;100.00;99468.47;5008251;28;20270;-76
2020/12/07 07:21:01;;;;;;;43.67;27.30;;;5.70;99.90;;;3.62;100.00;99473.56;5011155;28;20287;-76
2020/12/07 07:23:48;;;;;;;42.80;28.27;;;5.70;99.90;;;3.62;100.00;99479.53;4996742;28;20331;-79
2020/12/07 07:26:36;;;;;;;42.47;27.23;;;5.70;99.90;;;3.61;100.00;99477.00;5007448;28;20208;-77
2020/12/07 07:29:22;;;;;;;47.03;28.40;;;5.70;99.90;;;3.62;100.00;99476.97;4996186;28;20719;-77
2020/12/07 07:32:07;;;;;;;42.17;27.73;;;5.70;99.90;;;3.62;100.00;99471.03;5007043;28;20318;-77
2020/12/07 07:34:52;;;;;;;38.37;24.73;;;5.70;99.90;;;3.62;100.00;99473.56;5005255;28;20351;-77
2020/12/07 07:37:39;;;;;;;34.27;22.60;;;5.70;99.90;;;3.61;100.00;99474.44;4997462;28;20243;-77
2020/12/07 07:40:26;;;;;;;39.60;25.50;;;5.70;99.90;;;3.62;100.00;99471.03;4998501;28;20802;-77
2020/12/07 07:43:13;;;;;;;42.23;25.60;;;5.80;99.90;;;3.62;100.00;99492.31;4996173;28;20340;-77
2020/12/07 07:46:00;;;;;;;39.13;23.80;;;5.80;99.90;;;3.63;100.00;99488.03;4998584;28;20207;-77
2020/12/07 07:48:55;;;;;;;38.80;25.60;;;5.80;99.90;;;3.62;100.00;99488.91;5000021;28;20283;-76
2020/12/07 08:16:25;;;;;;;32.33;19.77;;;5.80;99.90;;;3.66;100.00;99519.50;5008175;28;20207;-78
2020/12/07 08:19:22;;;;;;;30.03;19.13;;;5.80;99.90;;;3.66;100.00;99523.75;4999823;28;20212;-79
2020/12/07 08:22:15;;;;;;;36.60;23.00;;;5.80;99.90;;;3.68;100.00;99527.16;5000816;28;20211;-77
2020/12/07 08:25:01;;;;;;;37.07;23.93;;;5.80;99.90;;;3.71;100.00;99531.38;5008247;28;20843;-77
2020/12/07 08:27:47;;;;;;;37.67;23.77;;;5.80;99.90;;;3.69;100.00;99534.78;5008563;28;20204;-78
2020/12/07 08:30:32;;;;;;;36.83;22.67;;;5.90;99.90;;;3.72;100.00;99528.78;5005216;28;20196;-77
2020/12/07 08:33:18;;;;;;;33.53;22.13;;;5.90;99.90;;;3.71;100.00;99537.31;4997809;28;20217;-78
2020/12/07 08:36:05;;;;;;;34.20;22.13;;;5.90;99.90;;;3.72;100.00;99536.47;5012338;28;20212;-78
2020/12/07 08:38:50;;;;;;;33.07;22.53;;;5.90;99.90;;;3.71;100.00;99539.06;5012048;28;20593;-76
2020/12/07 08:41:36;;;;;;;37.00;22.27;;;5.90;99.90;;;3.70;100.00;99538.19;5005445;28;20260;-77
2020/12/07 08:44:21;;;;;;;30.90;20.60;;;5.90;99.90;;;3.68;100.00;99540.78;5009747;28;20779;-78
2020/12/07 08:47:08;;;;;;;32.07;22.43;;;5.90;99.90;;;3.70;100.00;99545.84;5012205;28;20216;-77
2020/12/07 08:49:54;;;;;;;35.83;24.00;;;5.90;99.90;;;3.67;100.00;99541.63;5008428;28;20216;-78
2020/12/07 08:52:39;;;;;;;39.83;24.10;;;5.90;99.90;;;3.63;100.00;99544.28;5014294;28;20215;-78
2020/12/07 08:55:24;;;;;;;36.70;24.63;;;5.90;99.90;;;3.61;100.00;99554.53;5001090;28;20228;-77
2020/12/07 08:58:10;;;;;;;39.60;25.23;;;5.90;99.90;;;3.56;100.00;99550.38;5014503;28;20267;-78
2020/12/07 09:00:55;;;;;;;42.40;28.07;;;5.90;99.90;;;3.50;100.00;99559.84;5006137;28;20211;-77
2020/12/07 09:03:43;;;;;;;40.13;26.63;;;5.90;99.90;;;3.45;100.00;99566.72;5014628;28;20220;-78
2020/12/07 09:06:28;;;;;;;42.50;28.37;;;5.90;99.90;;;3.45;100.00;99571.84;5014112;28;20618;-78
2020/12/07 09:09:13;;;;;;;41.77;29.23;;;5.90;99.90;;;3.44;100.00;99572.75;5010937;28;20696;-78
2020/12/07 09:11:59;;;;;;;32.90;21.30;;;5.90;99.90;;;3.41;100.00;99580.47;5011224;28;20211;-78
2020/12/07 09:14:44;;;;;;;42.27;28.97;;;5.90;99.90;;;3.45;100.00;99574.41;5013472;28;20228;-77
2020/12/07 09:17:29;;;;;;;41.17;27.30;;;5.90;99.90;;;3.43;100.00;99575.31;5011773;28;20591;-76
2020/12/07 09:20:14;;;;;;;43.13;27.80;;;5.90;99.90;;;3.42;100.00;99577.00;5013652;28;20204;-77
2020/12/07 09:23:00;;;;;;;44.67;29.30;;;5.90;99.90;;;3.42;100.00;99577.00;5004288;28;20344;-77
2020/12/07 09:25:46;;;;;;;42.13;26.63;;;5.90;99.90;;;3.39;100.00;99584.72;5012539;28;20216;-78
2020/12/07 09:28:32;;;;;;;43.20;28.17;;;5.90;99.90;;;3.42;100.00;99578.75;5011832;28;20196;-76
2020/12/07 09:31:17;;;;;;;52.87;32.10;;;5.90;99.90;;;3.45;100.00;99582.06;4998476;28;20334;-77
2020/12/07 09:34:02;;;;;;;46.37;32.17;;;5.90;99.90;;;3.39;100.00;99577.06;5010222;28;20236;-77
2020/12/07 09:36:47;;;;;;;46.17;27.07;;;5.80;99.90;;;3.42;100.00;99576.19;5012748;28;20298;-77
2020/12/07 09:39:33;;;;;;;48.67;28.73;;;5.90;99.90;;;3.47;100.00;99584.59;5004675;28;20212;-76
2020/12/07 09:42:19;;;;;;;51.37;32.47;;;5.90;99.90;;;3.43;100.00;99585.53;5010011;28;20259;-78
2020/12/07 09:45:06;;;;;;;48.23;31.53;;;5.90;99.90;;;3.38;100.00;99584.75;5002899;28;20764;-78
2020/12/07 09:47:51;;;;;;;45.27;29.73;;;5.90;99.90;;;3.40;100.00;99593.25;5009199;28;20219;-77
2020/12/07 09:50:36;;;;;;;59.20;37.17;;;5.90;99.90;;;3.46;100.00;99585.50;5011352;28;20264;-78
2020/12/07 09:53:21;;;;;;;49.90;33.33;;;5.90;99.90;;;3.45;100.00;99586.34;5012458;28;20199;-77
2020/12/07 09:56:08;;;;;;;54.87;33.63;;;5.90;99.90;;;3.49;100.00;99593.09;5010441;28;20259;-78
2020/12/07 09:58:53;;;;;;;55.27;33.57;;;5.90;99.90;;;3.43;100.00;99588.09;5016051;28;20259;-78
2020/12/07 10:01:38;;;;;;;56.23;33.20;;;5.90;99.90;;;3.39;100.00;99589.84;5019354;28;20196;-77
2020/12/07 10:04:23;;;;;;;62.30;39.50;;;5.90;99.90;;;3.41;100.00;99585.56;5020512;28;20255;-78
2020/12/07 10:07:09;;;;;;;60.63;37.30;;;5.90;99.90;;;3.50;100.00;99585.41;5008179;28;20691;-78
2020/12/07 10:09:54;;;;;;;58.13;34.47;;;5.90;99.90;;;3.50;100.00;99587.97;5018212;28;20216;-77
2020/12/07 10:12:40;;;;;;;59.50;35.53;;;5.90;99.90;;;3.58;100.00;99589.56;5019776;28;20227;-78
2020/12/07 10:15:25;;;;;;;54.90;33.03;;;5.90;99.90;;;3.58;100.00;99592.94;5010580;28;20236;-78
2020/12/07 10:18:11;;;;;;;58.37;33.20;;;5.90;99.90;;;3.54;100.00;99606.66;5018766;28;20296;-78
2020/12/07 10:20:56;;;;;;;64.73;38.13;;;6.00;99.90;;;3.49;100.00;99600.78;5018279;28;20219;-78
2020/12/07 10:23:41;;;;;;;61.93;36.27;;;6.00;99.90;;;3.55;100.00;99602.41;5018446;28;20232;-77
2020/12/07 10:26:26;;;;;;;62.60;37.93;;;6.00;99.90;;;3.43;100.00;99604.28;5018917;28;20251;-78
2020/12/07 10:29:12;;;;;;;68.30;41.90;;;6.00;99.90;;;3.35;100.00;99606.09;5017430;28;20208;-77
2020/12/07 10:31:58;;;;;;;55.97;31.97;;;6.00;99.90;;;3.29;100.00;99618.97;5012400;28;20275;-77
2020/12/07 10:34:43;;;;;;;51.50;31.63;;;6.00;99.90;;;3.30;100.00;99613.84;5017656;28;20229;-79
2020/12/07 10:37:28;;;;;;;62.50;36.23;;;6.00;99.90;;;3.29;100.00;99621.53;5017655;28;20604;-79
2020/12/07 10:40:14;;;;;;;63.27;36.60;;;6.00;99.90;;;3.29;100.00;99621.53;5014349;28;20275;-77
2020/12/07 10:42:59;;;;;;;65.10;40.00;;;6.00;99.90;;;3.25;100.00;99630.09;5013677;28;20273;-79
2020/12/07 10:45:45;;;;;;;60.93;36.03;;;6.00;99.90;;;3.20;100.00;99631.91;5018055;28;20215;-78
2020/12/07 10:48:30;;;;;;;65.63;40.53;;;6.00;99.90;;;3.19;100.00;99625.94;5013460;28;20203;-78
2020/12/07 10:51:17;;;;;;;67.53;41.27;;;6.00;99.90;;;3.07;100.00;99641.44;5018013;28;20302;-77
2020/12/07 10:54:02;;;;;;;62.20;37.97;;;6.00;99.90;;;3.10;100.00;99637.16;5007133;28;20228;-78
2020/12/07 10:56:48;;;;;;;64.60;37.77;;;6.00;99.90;;;3.19;100.00;99640.41;5016336;28;20579;-77
2020/12/07 10:59:33;;;;;;;67.97;38.63;;;5.90;99.90;;;3.24;100.00;99641.22;5010180;28;20688;-78
2020/12/07 11:02:19;;;;;;;60.30;33.33;;;5.90;99.90;;;3.19;100.00;99640.41;5016294;28;20208;-78
2020/12/07 11:05:04;;;;;;;64.10;35.83;;;5.90;99.90;;;3.23;100.00;99637.78;5012753;28;20225;-78
2020/12/07 11:07:52;;;;;;;66.10;35.80;;;5.90;99.90;;;3.20;100.00;99634.44;5013211;28;20567;-79
2020/12/07 11:10:37;;;;;;;63.20;36.50;;;5.90;99.90;;;3.13;100.00;99647.31;5016577;28;20659;-78
2020/12/07 11:13:27;;;;;;;70.70;37.10;;;5.90;99.90;;;3.16;100.00;99649.84;5018969;28;20600;-79
2020/12/07 11:16:14;;;;;;;67.37;36.00;;;5.80;99.90;;;3.10;100.00;99641.38;5007307;28;20216;-77
2020/12/07 11:18:59;;;;;;;65.77;35.63;;;5.80;99.90;;;3.14;100.00;99641.34;5017995;28;20227;-78
2020/12/07 11:21:45;;;;;;;57.50;33.87;;;5.90;99.90;;;3.12;100.00;99645.63;5017975;28;20215;-77
2020/12/07 11:24:30;;;;;;;62.03;33.53;;;5.80;99.90;;;3.06;100.00;99652.53;5004773;28;20223;-79
2020/12/07 11:27:15;;;;;;;58.23;33.77;;;5.80;99.90;;;3.12;100.00;99650.72;5015395;28;20208;-79
2020/12/07 11:30:01;;;;;;;50.27;28.37;;;5.80;99.90;;;3.18;100.00;99649.81;5015558;28;20774;-76
2020/12/07 11:32:46;;;;;;;56.80;31.13;;;5.80;99.90;;;3.25;100.00;99645.44;5003520;28;20211;-79
2020/12/07 11:35:32;;;;;;;52.23;30.40;;;5.80;99.90;;;3.24;100.00;99648.88;5015893;28;20243;-78
2020/12/07 11:38:19;;;;;;;56.53;34.23;;;5.80;99.90;;;3.20;100.00;99647.22;5007922;28;20240;-78
2020/12/07 11:41:35;;;;;;;58.93;34.60;;;5.80;99.90;;;3.23;100.00;99645.47;5012925;28;20671;-78
2020/12/07 11:44:20;;;;;;;56.40;33.07;;;5.80;99.90;;;3.04;100.00;99655.13;5013427;28;20220;-78
2020/12/07 11:47:07;;;;;;;44.67;26.27;;;5.80;99.90;;;3.02;100.00;99654.28;5005563;28;20301;-76
2020/12/07 11:49:52;;;;;;;54.33;29.20;;;5.80;99.90;;;3.12;100.00;99649.91;4998374;28;20610;-78
2020/12/07 11:52:38;;;;;;;53.67;29.37;;;5.80;99.90;;;3.03;100.00;99660.22;5012586;28;20216;-76
2020/12/07 11:55:23;;;;;;;52.93;29.13;;;5.80;99.90;;;3.06;100.00;99655.94;5004467;28;20240;-78
2020/12/07 11:58:08;;;;;;;48.53;25.73;;;5.70;99.90;;;3.02;100.00;99649.16;4998490;28;20213;-78
2020/12/07 12:00:53;;;;;;;49.63;28.30;;;5.80;99.90;;;3.01;100.00;99644.09;5010743;28;20204;-78
2020/12/07 12:03:39;;;;;;;47.17;26.30;;;5.70;99.90;;;3.04;100.00;99659.38;4999795;28;20310;-78
2020/12/07 12:06:25;;;;;;;50.63;30.37;;;5.70;99.90;;;3.01;100.00;99651.75;5013199;28;20687;-78
2020/12/07 12:09:14;;;;;;;50.17;28.30;;;5.70;99.90;;;3.03;100.00;99647.44;5007353;28;20212;-78
2020/12/07 12:11:59;;;;;;;51.90;31.77;;;5.70;99.90;;;2.93;100.00;99645.03;5013843;28;20680;-76
2020/12/07 12:14:44;;;;;;;44.87;26.80;;;5.70;99.90;;;2.89;100.00;99643.38;5005026;28;20228;-77